Latest Weather Observations for Ngayawili (Elcho Island)

IDD60801

Issued at 8:31 am CST Sunday 19 November 2017 (issued every 30 minutes, with the page automatically refreshed every 10 minutes)

About weather observations | Map of weather stations | Latest weather observations for NT | Other Formats
Station Details ID: 014517 Name: NGAYAWILI Lat: -12.00 Lon: 135.57 Height: 8.1 m
Data from the previous 72 hours. | See also: Recent months at Ngayawili (Elcho Island)
Date/Time
CST
Temp
°C
App
Temp
°C
Dew
Point
°C
Rel
Hum
%
Delta-T
°C
Wind Press
QNH
hPa
Press
MSL
hPa
Rain since
9am
mm
Dir  Spd
km/h
Gust
km/h
Spd
kts
Gust
kts
19/08:30am 30.5 32.6 23.7 67 4.7 NNE 19 24 10 13 1009.9 1009.8 0.0
19/08:00am 30.4 33.4 23.3 66 4.9 NNE 13 20 7 11 1009.5 1009.4 0.0
19/07:30am 29.4 33.3 23.6 71 4.0 ENE 9 13 5 7 1009.2 1009.1 0.0
19/07:00am 28.2 32.7 24.0 78 2.9 ENE 7 11 4 6 1008.8 1008.7 0.0
19/06:30am 26.7 31.3 24.2 86 1.7 E 7 11 4 6 1008.5 1008.4 0.0
19/06:00am 25.8 29.9 24.0 90 1.2 E 9 11 5 6 1008.1 1008.0 0.0
19/05:30am 25.1 29.3 24.1 94 0.7 ESE 9 9 5 5 1007.9 1007.8 0.0
19/05:00am 25.2 29.3 24.0 93 0.8 ESE 9 9 5 5 1008.0 1007.9 0.0
19/04:30am 25.4 30.2 24.2 93 0.8 ENE 6 7 3 4 1007.9 1007.8 0.0
19/04:00am 25.7 30.5 24.1 91 1.1 ENE 6 9 3 5 1007.9 1007.8 0.0
19/03:30am 25.8 30.6 24.2 91 1.1 ENE 6 7 3 4 1007.8 1007.7 0.0
19/03:00am 26.4 31.0 24.2 88 1.5 ENE 7 9 4 5 1007.6 1007.5 0.0
19/02:30am 26.6 31.3 24.3 87 1.6 ENE 7 9 4 5 1007.5 1007.4 0.0
19/02:00am 26.7 31.5 24.4 87 1.6 E 7 9 4 5 1007.7 1007.6 0.0
19/01:30am 26.8 31.5 24.3 86 1.7 ENE 7 9 4 5 1008.0 1007.9 0.0
19/01:00am 27.0 31.9 24.3 85 1.9 ENE 6 9 3 5 1008.2 1008.1 0.0
19/12:30am 27.5 32.3 24.1 82 2.4 E 6 9 3 5 1008.6 1008.5 0.0
19/12:00am 27.8 32.6 24.2 81 2.5 E 6 9 3 5 1008.9 1008.8 0.0
 
Date/Time
CST
Temp
°C
App
Temp
°C
Dew
Point
°C
Rel
Hum
%
Delta-T
°C
Wind Press
QNH
hPa
Press
MSL
hPa
Rain since
9am
mm
Dir  Spd
km/h
Gust
km/h
Spd
kts
Gust
kts
18/11:30pm 28.2 32.5 24.2 79 2.8 NE 9 13 5 7 1009.1 1009.0 0.0
18/11:00pm 28.2 32.3 24.6 81 2.5 NE 11 15 6 8 1009.2 1009.1 0.0
18/10:30pm 28.0 32.9 24.6 82 2.4 NE 7 11 4 6 1009.3 1009.2 0.0
18/10:00pm 28.1 32.4 24.3 80 2.6 ENE 9 13 5 7 1009.1 1009.0 0.0
18/09:30pm 28.3 32.6 24.3 79 2.8 NE 9 13 5 7 1009.2 1009.1 0.0
18/09:00pm 28.6 32.3 23.9 75 3.3 NE 11 19 6 10 1008.9 1008.8 0.0
18/08:30pm 28.7 31.1 23.6 74 3.5 NE 17 22 9 12 1008.6 1008.5 0.0
18/08:00pm 28.6 31.7 23.5 74 3.5 NE 13 22 7 12 1008.2 1008.1 0.0
18/07:30pm 28.6 31.8 23.7 75 3.4 NE 13 20 7 11 1007.8 1007.7 0.0
18/07:00pm 28.9 31.5 22.6 69 4.3 NE 13 20 7 11 1007.5 1007.4 0.0
18/06:30pm 29.5 32.5 22.7 67 4.6 NE 11 20 6 11 1007.3 1007.2 0.0
18/06:00pm 30.2 32.7 24.4 71 4.1 NE 19 24 10 13 1007.0 1006.9 0.0
18/05:30pm 30.6 34.0 25.2 73 3.8 NNE 17 22 9 12 1006.9 1006.8 0.0
18/05:00pm 30.4 33.1 24.8 72 3.9 NNE 19 28 10 15 1006.5 1006.4 0.0
18/04:30pm 30.5 31.7 23.9 68 4.6 N 24 30 13 16 1006.2 1006.1 0.0
18/04:00pm 32.1 34.2 24.7 65 5.2 N 22 28 12 15 1006.3 1006.2 0.0
18/03:30pm 31.4 32.6 24.5 67 4.8 N 26 32 14 17 1006.6 1006.5 0.0
18/03:00pm 31.3 32.1 24.4 66 4.8 NNE 28 35 15 19 1006.9 1006.8 0.0
18/02:30pm 31.0 31.5 23.9 66 4.9 N 28 35 15 19 1007.3 1007.2 0.0
18/02:00pm 30.1 29.5 24.3 71 4.0 N 35 52 19 28 1007.7 1007.6 0.0
18/01:30pm 31.4 33.3 25.0 69 4.5 N 24 32 13 17 1008.1 1008.0 0.0
18/01:00pm 32.7 34.5 23.6 58 6.3 N 20 30 11 16 1008.4 1008.3 0.0
18/12:30pm 31.9 34.2 23.4 60 5.9 N 17 24 9 13 1009.0 1008.9 0.0
18/12:00pm 33.3 34.4 23.6 56 6.8 N 24 28 13 15 1009.3 1009.2 0.0
18/11:30am 32.9 33.3 22.4 54 7.2 N 24 33 13 18 1009.6 1009.5 0.0
18/11:00am 33.6 35.2 22.1 51 7.9 NE 17 26 9 14 1010.0 1009.9 0.0
18/10:30am 32.4 33.8 21.9 54 7.1 E 17 24 9 13 1010.2 1010.1 0.0
18/10:00am 32.4 34.2 22.5 56 6.8 E 17 24 9 13 1010.2 1010.1 0.0
18/09:30am 31.5 35.3 24.1 65 5.2 ENE 11 17 6 9 1010.3 1010.2 0.0
18/09:00am 31.2 34.6 24.1 66 4.9 ENE 13 22 7 12 1010.2 1010.1 0.0
18/08:30am 30.8 34.3 24.2 68 4.6 E 13 24 7 13 1010.0 1009.9 0.0
18/08:00am 29.3 33.8 24.6 76 3.3 ESE 9 15 5 8 1009.8 1009.7 0.0
18/07:30am 28.4 33.4 25.4 84 2.1 SSE 9 13 5 7 1009.2 1009.1 0.0
18/07:00am 27.4 33.0 25.8 91 1.1 SE 7 9 4 5 1009.1 1009.0 0.0
18/06:30am 25.8 31.0 25.1 96 0.5 SE 7 7 4 4 1008.7 1008.6 0.0
18/06:00am 25.3 30.2 24.6 96 0.5 ESE 7 7 4 4 1008.4 1008.3 0.0
18/05:30am 25.2 29.9 24.3 95 0.6 SE 7 9 4 5 1008.2 1008.1 0.0
18/05:00am 25.2 29.9 24.3 95 0.6 SE 7 9 4 5 1008.0 1007.9 0.0
18/04:30am 25.6 30.1 24.6 94 0.7 ESE 9 11 5 6 1007.7 1007.6 0.0
18/04:00am 25.3 30.1 24.4 95 0.6 SE 7 9 4 5 1007.3 1007.2 0.0
18/03:30am 25.2 29.9 24.0 93 0.8 SSE 6 6 3 3 1007.0 1006.9 0.0
18/03:00am 25.8 30.6 24.2 91 1.1 SSE 6 7 3 4 1006.9 1006.8 0.0
18/02:30am 26.1 31.0 24.3 90 1.2 SSE 6 7 3 4 1007.0 1006.9 0.0
18/02:00am 26.3 30.6 24.3 89 1.4 SSE 9 9 5 5 1007.3 1007.2 0.0
18/01:30am 26.4 31.0 24.1 87 1.6 SE 7 9 4 5 1007.8 1007.7 0.0
18/01:00am 26.4 31.0 24.2 88 1.5 SE 7 7 4 4 1008.4 1008.3 0.0
18/12:30am 26.8 31.6 24.1 85 1.9 E 6 7 3 4 1008.9 1008.8 0.0
18/12:00am 27.0 32.0 24.5 86 1.7 ESE 6 7 3 4 1009.3 1009.2 0.0
 
Date/Time
CST
Temp
°C
App
Temp
°C
Dew
Point
°C
Rel
Hum
%
Delta-T
°C
Wind Press
QNH
hPa
Press
MSL
hPa
Rain since
9am
mm
Dir  Spd
km/h
Gust
km/h
Spd
kts
Gust
kts
17/11:30pm 26.6 31.5 24.4 88 1.5 SE 6 7 3 4 1009.3 1009.2 0.0
17/11:00pm 26.4 31.0 24.1 87 1.6 ESE 7 7 4 4 1009.6 1009.5 0.0
17/10:30pm 26.5 31.3 24.2 87 1.6 ESE 6 7 3 4 1009.6 1009.5 0.0
17/10:00pm 26.7 31.0 23.6 83 2.1 NE 7 9 4 5 1009.3 1009.2 0.0
17/09:30pm 27.0 31.5 23.9 83 2.1 ESE 7 9 4 5 1009.0 1008.9 0.0
17/09:00pm 27.1 31.4 23.6 81 2.4 ENE 7 9 4 5 1008.7 1008.6 0.0
17/08:30pm 27.3 31.7 23.5 80 2.6 E 6 7 3 4 1008.4 1008.3 0.0
17/08:00pm 27.7 33.5 23.9 80 2.6 CALM 0 0 0 0 1008.2 1008.1 0.0
17/07:30pm 28.4 32.9 24.0 77 3.0 ESE 7 11 4 6 1008.0 1007.9 0.0
17/07:00pm 29.0 32.0 24.6 77 3.1 NE 17 24 9 13 1007.6 1007.5 0.0
17/06:30pm 29.2 32.5 24.5 76 3.3 NE 15 24 8 13 1007.4 1007.3 0.0
17/06:00pm 29.3 32.4 24.8 77 3.2 NE 17 24 9 13 1007.2 1007.1 0.0
17/05:30pm 29.9 31.1 24.5 73 3.8 NNE 26 32 14 17 1006.8 1006.7 0.0
17/05:00pm 30.4 32.0 24.5 70 4.1 NNE 24 32 13 17 1006.3 1006.2 0.0
17/04:30pm 30.9 31.7 24.5 68 4.5 N 28 33 15 18 1006.3 1006.2 0.0
17/04:00pm 31.3 31.5 24.7 68 4.6 NNE 32 43 17 23 1006.3 1006.2 0.0
17/03:30pm 32.7 32.6 21.5 51 7.6 NNE 24 33 13 18 1006.3 1006.2 0.0
17/03:00pm 32.1 32.2 21.9 54 6.9 NNE 24 39 13 21 1006.6 1006.5 0.0
17/02:30pm 33.3 33.8 22.7 53 7.3 NNE 24 30 13 16 1006.9 1006.8 0.0
17/02:00pm 33.0 34.0 21.8 51 7.6 NE 19 30 10 16 1007.2 1007.1 0.0
17/01:30pm 32.2 33.5 22.6 57 6.6 NNE 20 28 11 15 1007.5 1007.4 0.0
17/01:00pm 32.5 33.8 22.6 56 6.8 N 20 28 11 15 1007.8 1007.7 0.0
17/12:30pm 31.8 34.3 22.5 58 6.4 NE 13 20 7 11 1008.5 1008.4 0.0
17/12:00pm 31.7 34.7 22.7 59 6.2 NE 11 19 6 10 1008.8 1008.7 0.0
17/11:30am 31.9 34.2 22.0 55 6.7 ESE 13 20 7 11 1009.4 1009.3 0.0
17/11:00am 32.3 34.5 21.8 54 7.1 ENE 13 22 7 12 1009.6 1009.5 0.0
17/10:30am 32.3 35.2 22.4 56 6.8 ESE 11 20 6 11 1009.9 1009.8 0.0
17/10:00am 32.2 34.6 22.9 58 6.4 E 15 22 8 12 1010.0 1009.9 0.0
17/09:30am 31.8 34.7 23.1 60 6.0 ESE 13 20 7 11 1010.1 1010.0 0.0
17/09:00am 30.9 33.6 22.8 62 5.6 SE 13 20 7 11 1010.0 1009.9 0.0
17/08:30am 29.1 32.2 24.2 75 3.4 SE 15 22 8 12 1009.5 1009.4 0.0
17/08:00am 28.7 32.5 24.7 79 2.8 SE 13 19 7 10 1009.4 1009.3 0.0
17/07:30am 27.9 32.0 24.5 82 2.4 SSE 11 17 6 9 1009.1 1009.0 0.0
17/07:00am 26.8 30.9 24.6 88 1.5 SSE 11 15 6 8 1009.1 1009.0 0.0
17/06:30am 26.2 30.8 24.8 92 1.0 SSE 9 13 5 7 1008.7 1008.6 0.0
17/06:00am 25.8 30.1 24.9 95 0.6 SSE 11 15 6 8 1008.5 1008.4 0.0
17/05:30am 25.5 30.3 24.5 94 0.7 SSE 7 9 4 5 1008.3 1008.2 0.0
17/05:00am 25.5 30.1 24.1 92 1.0 ESE 7 9 4 5 1008.1 1008.0 0.0
17/04:30am 25.9 30.5 24.1 90 1.2 E 7 11 4 6 1007.9 1007.8 0.0
17/04:00am 25.2 30.0 24.2 94 0.7 SE 6 9 3 5 1007.7 1007.6 0.0
17/03:30am 25.2 29.9 24.0 93 0.8 SE 6 7 3 4 1007.5 1007.4 0.0
17/03:00am 26.0 30.8 24.4 91 1.1 ESE 7 9 4 5 1007.5 1007.4 0.0
17/02:30am 26.2 31.0 24.4 90 1.2 ENE 7 9 4 5 1007.6 1007.5 0.0
17/02:00am 26.2 31.0 24.2 89 1.4 E 6 7 3 4 1007.9 1007.8 0.0
17/01:30am 26.6 31.5 24.6 89 1.4 ENE 7 9 4 5 1008.0 1007.9 0.0
17/01:00am 26.3 31.2 24.7 91 1.1 ESE 7 9 4 5 1008.6 1008.5 0.0
17/12:30am 25.9 30.8 24.3 91 1.1 E 6 6 3 3 1009.0 1008.9 0.0
17/12:00am 26.2 31.1 24.4 90 1.2 E 6 9 3 5 1009.3 1009.2 0.0
 
Date/Time
CST
Temp
°C
App
Temp
°C
Dew
Point
°C
Rel
Hum
%
Delta-T
°C
Wind Press
QNH
hPa
Press
MSL
hPa
Rain since
9am
mm
Dir  Spd
km/h
Gust
km/h
Spd
kts
Gust
kts
16/11:30pm 25.9 31.6 23.8 88 1.4 CALM 0 0 0 0 1009.5 1009.4 0.0
16/11:00pm 26.4 31.3 23.7 85 1.9 E 4 7 2 4 1009.8 1009.7 0.0
16/10:30pm 26.7 31.1 23.8 84 2.0 E 7 9 4 5 1009.8 1009.7 0.0
16/10:00pm 26.8 31.5 23.9 84 2.0 ESE 6 9 3 5 1009.5 1009.4 0.0
16/09:30pm 27.3 31.6 23.7 81 2.5 E 7 9 4 5 1009.1 1009.0 0.0
16/09:00pm 27.8 31.8 23.8 79 2.8 ENE 9 15 5 8 1008.7 1008.6 0.0
16/08:30pm 27.9 32.2 24.3 81 2.5 ENE 9 15 5 8 1008.5 1008.4 0.0
16/08:00pm 27.9 32.2 24.3 81 2.5 NE 9 13 5 7 1008.0 1007.9 0.0
16/07:30pm 28.0 32.5 24.0 79 2.8 ENE 7 11 4 6 1007.8 1007.7 0.0
16/07:00pm 28.2 32.9 24.0 78 2.9 ENE 6 9 3 5 1007.6 1007.5 0.0
16/06:30pm 28.6 33.1 23.7 75 3.4 ENE 6 9 3 5 1007.5 1007.4 0.0
16/06:00pm 29.2 33.5 23.6 72 3.9 ESE 7 9 4 5 1007.0 1006.9 0.0
16/05:30pm 29.4 33.2 23.4 70 4.1 E 9 15 5 8 1006.8 1006.7 0.0
16/05:00pm 29.5 32.5 22.7 67 4.6 E 11 20 6 11 1006.5 1006.4 0.0
16/04:30pm 29.4 32.9 23.6 71 4.0 ENE 11 20 6 11 1006.4 1006.3 0.0
16/04:00pm 29.5 31.4 23.7 71 4.0 E 20 35 11 19 1006.3 1006.2 0.0
16/03:30pm 31.5 33.0 23.1 61 5.8 NE 20 32 11 17 1006.0 1005.9 0.0
16/03:00pm 31.6 31.7 22.6 59 6.2 NNE 26 37 14 20 1006.0 1005.9 0.0
16/02:30pm 32.4 32.6 22.8 57 6.6 NNE 26 33 14 18 1006.2 1006.1 0.0
16/02:00pm 32.7 33.2 21.9 53 7.3 NNE 22 32 12 17 1006.6 1006.5 0.0
16/01:30pm 32.8 32.6 22.0 53 7.4 NNE 26 32 14 17 1007.1 1007.0 0.0
16/01:00pm 32.5 33.2 22.3 55 7.0 NNE 22 32 12 17 1007.8 1007.7 0.0
16/12:30pm 32.2 34.2 22.3 56 6.8 NE 15 24 8 13 1008.2 1008.1 0.0
16/12:00pm 32.9 33.6 20.4 47 8.3 NE 17 26 9 14 1008.6 1008.5 0.0
16/11:30am 33.1 36.0 23.1 55 6.9 E 13 20 7 11 1008.8 1008.7 0.0
16/11:00am 32.2 35.6 23.4 59 6.1 ENE 11 22 6 12 1009.2 1009.1 0.0
16/10:30am 30.5 35.4 25.3 74 3.7 N 9 13 5 7 1009.5 1009.4 0.0
16/10:00am 30.3 35.0 24.9 73 3.8 ENE 9 17 5 9 1009.6 1009.5 0.0
16/09:30am 29.6 35.5 25.4 78 3.0 ENE 4 22 2 12 1009.8 1009.7 0.0
16/09:00am 29.6 35.4 25.8 80 2.7 SSE 6 13 3 7 1009.8 1009.7 3.6

Other Formats:

Comma delimited format used in spreadsheet applications
http://www.bom.gov.au/fwo/IDD60801/IDD60801.95146.axf

JavaScript Object Notation format (JSON) in row-major order
http://www.bom.gov.au/fwo/IDD60801/IDD60801.95146.json